Time;durP1;ratioP1;P1;durP2;ratioP2;P2;SDS_P1;SDS_P2;PMS_P1;PMS_P2;Temp;Humidity;BMP_temperature;BMP_pressure;BME280_temperature;BME280_humidity;BME280_pressure;Samples;Min_cycle;Max_cycle;Signal;HPM_P1;HPM_P2
2022/10/07 00:00:45;;;;;;;34.53;17.70;;;;;;;9.94;100.00;95762.41;5058397;28;20197;-82
2022/10/07 00:03:11;;;;;;;31.37;17.70;;;;;;;9.99;100.00;95765.22;5059991;28;20201;-82
2022/10/07 00:05:38;;;;;;;35.53;16.73;;;;;;;10.03;100.00;95762.09;5057654;28;20221;-80
2022/10/07 00:08:05;;;;;;;28.90;14.83;;;;;;;9.99;100.00;95760.03;5058736;28;20193;-82
2022/10/07 00:10:32;;;;;;;28.13;15.23;;;;;;;10.09;100.00;95756.16;5057153;28;20194;-82
2022/10/07 00:13:01;;;;;;;23.43;12.50;;;;;;;10.12;100.00;95754.97;5060319;28;20325;-82
2022/10/07 00:15:28;;;;;;;28.13;15.13;;;;;;;10.06;100.00;95758.31;5058714;28;20230;-81
2022/10/07 00:17:54;;;;;;;23.40;12.47;;;;;;;10.02;100.00;95759.66;5060843;28;20208;-81
2022/10/07 00:20:22;;;;;;;19.90;11.17;;;;;;;10.06;100.00;95756.53;5059210;28;20660;-81
2022/10/07 00:22:48;;;;;;;20.73;11.80;;;;;;;9.98;100.00;95746.28;5060900;28;20208;-81
2022/10/07 00:25:15;;;;;;;24.77;13.30;;;;;;;10.02;100.00;95755.28;5058845;28;20687;-79
2022/10/07 00:27:42;;;;;;;23.10;12.87;;;;;;;10.01;100.00;95753.69;5055169;28;20212;-79
2022/10/07 00:30:12;;;;;;;29.20;13.00;;;;;;;9.99;100.00;95741.84;5060449;28;20264;-79
2022/10/07 00:32:39;;;;;;;22.63;12.73;;;;;;;9.96;100.00;95737.84;5061933;28;20193;-80
2022/10/07 00:35:06;;;;;;;24.97;12.33;;;;;;;9.94;100.00;95744.22;5060034;28;20205;-79
2022/10/07 00:37:34;;;;;;;22.67;12.60;;;;;;;9.97;100.00;95738.66;5057813;28;20196;-80
2022/10/07 00:40:01;;;;;;;23.47;12.40;;;;;;;9.93;100.00;95740.81;5062191;28;20476;-82
2022/10/07 00:42:29;;;;;;;25.10;12.23;;;;;;;9.95;100.00;95738.84;5058009;28;20592;-81
2022/10/07 00:44:56;;;;;;;17.90;10.97;;;;;;;9.89;100.00;95728.41;5054388;28;20935;-81
2022/10/07 00:47:28;;;;;;;21.13;11.13;;;;;;;9.63;100.00;95736.75;5062957;28;20608;-81
2022/10/07 00:50:01;;;;;;;15.13;9.53;;;;;;;9.29;100.00;95734.00;5058477;28;20267;-81
2022/10/07 00:52:31;;;;;;;18.73;12.60;;;;;;;8.95;100.00;95730.22;5062692;28;20594;-80
2022/10/07 00:55:01;;;;;;;21.07;12.77;;;;;;;8.96;100.00;95734.41;5057159;28;20236;-79
2022/10/07 00:57:31;;;;;;;23.50;12.00;;;;;;;9.05;100.00;95722.16;5057416;28;20205;-78
2022/10/07 00:59:59;;;;;;;25.37;12.37;;;;;;;9.13;100.00;95728.03;5056125;28;20212;-78
2022/10/07 01:02:28;;;;;;;22.27;11.80;;;;;;;9.23;100.00;95726.94;5061124;28;20202;-79
2022/10/07 01:04:58;;;;;;;21.20;12.03;;;;;;;9.34;100.00;95729.88;5058382;28;20197;-79
2022/10/07 01:07:26;;;;;;;18.97;11.13;;;;;;;9.40;100.00;95725.75;5059046;28;20254;-79
2022/10/07 01:09:54;;;;;;;21.23;11.47;;;;;;;9.48;100.00;95730.81;5056606;28;20708;-80
2022/10/07 01:12:29;;;;;;;18.23;11.70;;;;;;;9.55;100.00;95729.09;5058211;28;20680;-78
2022/10/07 01:15:01;;;;;;;18.60;10.63;;;;;;;9.61;100.00;95730.94;5057446;28;20208;-78
2022/10/07 01:17:35;;;;;;;16.27;9.70;;;;;;;9.64;100.00;95726.19;5055435;28;20205;-78
2022/10/07 01:20:16;;;;;;;20.73;11.73;;;;;;;9.67;100.00;95723.22;5058320;28;20226;-79
2022/10/07 01:22:52;;;;;;;19.63;11.73;;;;;;;9.72;100.00;95727.84;5058733;28;20201;-78
2022/10/07 01:25:32;;;;;;;17.60;10.90;;;;;;;9.72;100.00;95724.47;5061730;28;20189;-78
2022/10/07 01:28:06;;;;;;;19.10;11.83;;;;;;;9.68;100.00;95724.03;5062689;28;20209;-78
2022/10/07 01:30:40;;;;;;;22.53;12.63;;;;;;;9.64;100.00;95727.97;5060059;28;20208;-78
2022/10/07 01:33:13;;;;;;;23.80;12.50;;;;;;;9.63;100.00;95722.00;5065181;28;20194;-79
2022/10/07 01:35:42;;;;;;;23.60;13.13;;;;;;;9.61;100.00;95721.34;5059896;28;20205;-78
2022/10/07 01:38:14;;;;;;;24.97;13.97;;;;;;;9.55;100.00;95723.91;5060998;28;20198;-80
2022/10/07 01:40:47;;;;;;;25.73;13.67;;;;;;;9.63;100.00;95726.38;5061691;28;20182;-79
2022/10/07 01:43:18;;;;;;;25.03;13.97;;;;;;;9.61;100.00;95716.16;5056525;28;20262;-80
2022/10/07 01:45:44;;;;;;;23.93;13.40;;;;;;;9.62;100.00;95725.56;5059035;28;20228;-79
2022/10/07 01:48:11;;;;;;;25.23;14.63;;;;;;;9.60;100.00;95719.75;5066130;28;20598;-79
2022/10/07 01:50:39;;;;;;;28.47;13.83;;;;;;;9.58;100.00;95719.13;5060401;28;20201;-80
2022/10/07 01:53:26;;;;;;;28.20;14.57;;;;;;;9.50;100.00;95721.84;5065466;28;20193;-79
2022/10/07 01:56:05;;;;;;;32.50;14.13;;;;;;;9.47;100.00;95727.41;5059136;28;20193;-79
2022/10/07 01:58:49;;;;;;;23.27;14.50;;;;;;;9.44;100.00;95719.19;5060217;28;20198;-79
2022/10/07 02:01:22;;;;;;;24.23;13.77;;;;;;;8.98;100.00;95722.06;5067008;28;20193;-78
2022/10/07 02:04:13;;;;;;;24.13;13.97;;;;;;;8.73;100.00;95713.00;5061541;28;20198;-78
2022/10/07 02:06:46;;;;;;;26.70;13.13;;;;;;;8.72;100.00;95713.16;5059935;28;20217;-78
2022/10/07 02:09:23;;;;;;;27.33;13.33;;;;;;;8.74;100.00;95709.44;5062498;28;20190;-78
2022/10/07 02:11:57;;;;;;;20.97;12.60;;;;;;;8.82;100.00;95706.72;5060376;28;20272;-79
2022/10/07 02:14:37;;;;;;;50.47;22.63;;;;;;;8.88;100.00;95706.00;5059666;28;20192;-81
2022/10/07 02:17:07;;;;;;;67.20;28.60;;;;;;;8.87;100.00;95707.00;5063975;28;20190;-80
2022/10/07 02:19:39;;;;;;;75.77;32.13;;;;;;;8.95;100.00;95713.84;5060664;28;20303;-80
2022/10/07 02:22:09;;;;;;;86.83;33.03;;;;;;;9.00;100.00;95716.72;5063314;28;20197;-80
2022/10/07 02:24:39;;;;;;;70.87;30.67;;;;;;;8.99;100.00;95718.50;5061538;28;20190;-80
2022/10/07 02:27:10;;;;;;;69.70;29.77;;;;;;;9.05;100.00;95725.56;5060145;28;20221;-80
2022/10/07 02:29:41;;;;;;;79.37;32.57;;;;;;;9.09;100.00;95724.19;5059093;28;20271;-80
2022/10/07 02:32:12;;;;;;;87.47;34.50;;;;;;;9.12;100.00;95723.03;5062535;28;20204;-78
2022/10/07 02:34:42;;;;;;;61.40;26.90;;;;;;;9.23;100.00;95726.94;5059016;28;20630;-79
2022/10/07 02:37:14;;;;;;;66.97;28.10;;;;;;;9.22;100.00;95736.53;5061022;28;20198;-79
2022/10/07 02:39:44;;;;;;;66.93;29.83;;;;;;;9.20;100.00;95735.09;5057979;28;20284;-78
2022/10/07 02:42:16;;;;;;;38.27;16.90;;;;;;;9.16;100.00;95737.25;5060655;28;20567;-78
2022/10/07 02:44:50;;;;;;;62.00;26.73;;;;;;;9.09;100.00;95724.19;5062321;28;20760;-78
2022/10/07 02:47:22;;;;;;;57.30;21.93;;;;;;;9.09;100.00;95733.78;5056760;28;20221;-79
2022/10/07 02:49:52;;;;;;;39.53;19.77;;;;;;;9.10;100.00;95725.00;5059018;28;20202;-79
2022/10/07 02:52:21;;;;;;;36.57;18.30;;;;;;;9.04;100.00;95731.72;5063981;28;20551;-79
2022/10/07 02:54:55;;;;;;;34.13;16.43;;;;;;;9.02;100.00;95728.50;5061805;28;20196;-79
2022/10/07 02:57:25;;;;;;;41.00;18.20;;;;;;;8.98;100.00;95722.06;5059909;28;20613;-78
2022/10/07 02:59:57;;;;;;;22.17;10.60;;;;;;;8.91;100.00;95728.19;5063281;28;20554;-80
2022/10/07 03:02:29;;;;;;;38.20;16.47;;;;;;;8.45;100.00;95723.19;5057898;28;20292;-79
2022/10/07 03:04:57;;;;;;;26.07;14.03;;;;;;;8.24;100.00;95727.41;5061975;28;20194;-80
2022/10/07 03:07:24;;;;;;;23.17;14.03;;;;;;;8.28;100.00;95718.34;5062501;28;20226;-80
2022/10/07 03:09:52;;;;;;;38.50;16.27;;;;;;;8.38;100.00;95729.25;5060244;28;20275;-80
2022/10/07 03:12:19;;;;;;;34.13;16.97;;;;;;;8.52;100.00;95731.03;5062782;28;20186;-79
2022/10/07 03:14:48;;;;;;;37.27;16.93;;;;;;;8.56;100.00;95732.31;5060731;28;20205;-78
2022/10/07 03:17:16;;;;;;;31.80;16.43;;;;;;;8.61;100.00;95729.97;5060827;28;20304;-78
2022/10/07 03:19:43;;;;;;;24.00;14.53;;;;;;;8.61;100.00;95729.16;5059541;28;20197;-78
2022/10/07 03:22:10;;;;;;;26.67;14.30;;;;;;;8.74;100.00;95724.97;5055259;28;20630;-78
2022/10/07 03:24:37;;;;;;;27.50;15.57;;;;;;;8.76;100.00;95732.56;5061812;28;20201;-73
2022/10/07 03:27:06;;;;;;;27.13;14.80;;;;;;;8.75;100.00;95726.56;5057883;28;20274;-74
2022/10/07 03:29:34;;;;;;;25.87;14.13;;;;;;;8.81;100.00;95725.84;5059388;28;20194;-80
2022/10/07 03:32:01;;;;;;;27.43;14.60;;;;;;;8.75;100.00;95713.59;5057173;28;20199;-73
2022/10/07 03:34:30;;;;;;;24.80;14.70;;;;;;;8.78;100.00;95717.63;5065840;28;20202;-74
2022/10/07 03:36:57;;;;;;;29.23;16.30;;;;;;;8.82;100.00;95714.50;5057073;28;20194;-74
2022/10/07 03:39:24;;;;;;;32.73;16.90;;;;;;;8.81;100.00;95712.88;5063573;28;21107;-74
2022/10/07 03:41:51;;;;;;;33.10;18.27;;;;;;;8.87;100.00;95714.75;5059309;28;20247;-72
2022/10/07 03:44:18;;;;;;;40.00;18.73;;;;;;;8.82;100.00;95718.88;5056507;28;20967;-73
2022/10/07 03:46:48;;;;;;;28.57;15.20;;;;;;;8.64;100.00;95727.03;5058634;28;20244;-73
2022/10/07 03:49:15;;;;;;;26.13;11.93;;;;;;;8.43;100.00;95716.56;5059177;28;20230;-73
2022/10/07 03:51:44;;;;;;;19.23;11.50;;;;;;;8.29;100.00;95718.16;5058109;28;20301;-73
2022/10/07 03:54:10;;;;;;;26.83;13.97;;;;;;;8.32;100.00;95722.19;5056209;28;20260;-75
2022/10/07 03:56:37;;;;;;;33.77;14.53;;;;;;;8.35;100.00;95717.47;5061814;28;20193;-74
2022/10/07 03:59:04;;;;;;;31.40;16.33;;;;;;;8.34;100.00;95712.47;5060024;28;20204;-74
2022/10/07 04:01:31;;;;;;;29.97;17.33;;;;;;;8.07;100.00;95715.59;5058342;28;20206;-76
2022/10/07 04:03:59;;;;;;;38.10;17.33;;;;;;;7.78;100.00;95722.31;5057722;28;20775;-74
2022/10/07 04:06:26;;;;;;;39.77;19.20;;;;;;;7.84;100.00;95726.00;5059510;28;20760;-76
2022/10/07 04:08:55;;;;;;;30.20;19.37;;;;;;;7.95;100.00;95723.81;5057198;28;20208;-76
2022/10/07 04:11:23;;;;;;;33.20;20.00;;;;;;;7.97;100.00;95727.00;5059914;28;20201;-76
2022/10/07 04:13:49;;;;;;;38.00;18.20;;;;;;;8.09;100.00;95722.22;5057465;28;20194;-74
2022/10/07 04:16:16;;;;;;;36.97;19.27;;;;;;;8.20;100.00;95718.38;5059419;28;20619;-75
2022/10/07 04:18:43;;;;;;;31.47;18.57;;;;;;;8.29;100.00;95722.53;5057739;28;20723;-74
2022/10/07 04:21:11;;;;;;;33.73;18.60;;;;;;;8.38;100.00;95729.25;5057393;28;20209;-75
2022/10/07 04:23:40;;;;;;;31.47;14.33;;;;;;;8.30;100.00;95730.16;5060962;28;20557;-75
2022/10/07 04:26:10;;;;;;;37.30;13.73;;;;;;;8.27;100.00;95725.31;5056618;28;20198;-75
2022/10/07 04:28:38;;;;;;;32.50;12.90;;;;;;;8.27;100.00;95725.31;5057183;28;20251;-81
2022/10/07 04:31:06;;;;;;;30.13;13.47;;;;;;;8.33;100.00;95723.81;5057447;28;20208;-73
2022/10/07 04:33:33;;;;;;;29.80;14.50;;;;;;;8.41;100.00;95721.94;5058604;28;20198;-73
2022/10/07 04:36:04;;;;;;;35.20;17.13;;;;;;;8.49;100.00;95724.44;5057168;28;20309;-74
2022/10/07 04:38:32;;;;;;;27.97;14.90;;;;;;;8.54;100.00;95724.69;5059431;28;20218;-74
2022/10/07 04:41:03;;;;;;;45.73;17.13;;;;;;;8.60;100.00;95723.16;5058619;28;20205;-75
2022/10/07 04:43:32;;;;;;;29.93;15.57;;;;;;;8.62;100.00;95723.00;5058675;28;20221;-73
2022/10/07 04:46:05;;;;;;;36.40;16.50;;;;;;;8.64;100.00;95718.44;5057938;28;20209;-73
2022/10/07 04:48:33;;;;;;;40.50;16.37;;;;;;;8.63;100.00;95716.84;5057963;28;20257;-72
2022/10/07 04:51:03;;;;;;;33.20;16.13;;;;;;;8.63;100.00;95719.44;5058858;28;20699;-74
2022/10/07 04:53:30;;;;;;;33.90;17.60;;;;;;;8.72;100.00;95720.94;5057240;28;20690;-74
2022/10/07 04:55:57;;;;;;;37.90;17.57;;;;;;;8.76;100.00;95720.41;5056986;28;20205;-73
2022/10/07 04:58:24;;;;;;;38.63;16.90;;;;;;;8.76;100.00;95719.59;5062564;28;20194;-73
2022/10/07 05:00:54;;;;;;;33.80;18.97;;;;;;;8.67;100.00;95715.50;5058718;28;20696;-74
2022/10/07 05:03:23;;;;;;;33.80;18.30;;;;;;;8.72;100.00;95721.75;5056655;28;20198;-74
2022/10/07 05:05:52;;;;;;;53.23;21.07;;;;;;;8.79;100.00;95727.00;5063731;28;20208;-75
2022/10/07 05:08:21;;;;;;;61.17;21.77;;;;;;;8.80;100.00;95734.59;5061681;28;20221;-75
2022/10/07 05:10:48;;;;;;;61.53;22.40;;;;;;;8.79;100.00;95729.59;5062657;28;20193;-75
2022/10/07 05:13:16;;;;;;;50.33;22.00;;;;;;;8.84;100.00;95737.63;5060926;28;20194;-75
2022/10/07 05:15:50;;;;;;;50.17;23.00;;;;;;;8.85;100.00;95745.25;5041755;28;20288;-73
2022/10/07 05:18:19;;;;;;;51.43;22.97;;;;;;;8.82;100.00;95737.03;5052206;28;20200;-72
2022/10/07 05:20:47;;;;;;;50.30;23.77;;;;;;;8.89;100.00;95746.47;5064654;28;20220;-73
2022/10/07 05:23:14;;;;;;;70.07;24.80;;;;;;;8.93;100.00;95746.94;5060637;28;21065;-73
2022/10/07 05:25:42;;;;;;;50.53;23.53;;;;;;;8.97;100.00;95750.78;5061576;28;20567;-72
2022/10/07 05:28:11;;;;;;;47.47;23.40;;;;;;;9.12;100.00;95744.56;5062606;28;20213;-72
2022/10/07 05:30:39;;;;;;;41.27;23.20;;;;;;;9.15;100.00;95756.38;5056009;28;20194;-72
2022/10/07 05:33:06;;;;;;;62.23;22.97;;;;;;;9.20;100.00;95750.66;5064882;28;20193;-73
2022/10/07 05:35:35;;;;;;;45.60;22.30;;;;;;;9.27;100.00;95754.13;5057340;28;20194;-75
2022/10/07 05:38:02;;;;;;;36.57;19.07;;;;;;;9.32;100.00;95752.56;5063699;28;20197;-75
2022/10/07 05:40:29;;;;;;;31.57;16.37;;;;;;;9.39;100.00;95758.66;5060007;28;20206;-75
2022/10/07 05:42:56;;;;;;;33.67;17.47;;;;;;;9.34;100.00;95760.19;5061707;28;20209;-75
2022/10/07 05:45:22;;;;;;;42.40;14.87;;;;;;;9.24;100.00;95759.66;5060383;28;20200;-75
2022/10/07 05:47:50;;;;;;;30.53;14.20;;;;;;;9.28;100.00;95747.94;5058478;28;20229;-75
2022/10/07 05:50:17;;;;;;;35.87;15.10;;;;;;;9.36;100.00;95755.63;5060692;28;20288;-75
2022/10/07 05:52:45;;;;;;;33.77;14.93;;;;;;;9.40;100.00;95749.91;5062872;28;20401;-75
2022/10/07 05:55:12;;;;;;;33.37;14.33;;;;;;;9.42;100.00;95767.88;5061905;28;20197;-75
2022/10/07 05:57:40;;;;;;;28.63;14.23;;;;;;;9.41;100.00;95753.28;5055570;28;20194;-75
2022/10/07 06:00:08;;;;;;;35.27;13.97;;;;;;;9.58;100.00;95767.66;5061679;28;20190;-75
2022/10/07 06:02:35;;;;;;;29.30;13.97;;;;;;;9.68;100.00;95771.53;5062673;28;20194;-75
2022/10/07 06:05:02;;;;;;;26.27;13.97;;;;;;;9.83;100.00;95776.69;5062215;28;20607;-75
2022/10/07 06:07:29;;;;;;;35.33;12.83;;;;;;;9.85;100.00;95774.69;5055831;28;20249;-74
2022/10/07 06:15:25;;;;;;;23.33;11.80;;;;;;;10.16;100.00;95774.41;5061488;28;20209;-75
2022/10/07 06:17:52;;;;;;;22.33;12.13;;;;;;;10.25;100.00;95775.88;5061252;28;20653;-75
2022/10/07 06:20:19;;;;;;;29.57;13.30;;;;;;;10.40;100.00;95770.59;5058865;28;20194;-75
2022/10/07 06:22:46;;;;;;;25.37;13.03;;;;;;;10.46;100.00;95768.03;5059996;28;20205;-75
2022/10/07 06:25:14;;;;;;;29.00;15.33;;;;;;;10.49;100.00;95769.47;5061908;28;20198;-77
2022/10/07 06:27:41;;;;;;;109.43;47.17;;;;;;;10.60;100.00;95771.53;5060497;28;20229;-76
2022/10/07 06:30:09;;;;;;;105.73;49.20;;;;;;;10.70;100.00;95778.03;5060189;28;20259;-76
2022/10/07 06:32:35;;;;;;;76.33;36.70;;;;;;;10.70;100.00;95772.81;5061225;28;20201;-75
2022/10/07 06:35:02;;;;;;;76.77;34.57;;;;;;;10.78;100.00;95774.47;5059189;28;20224;-76
2022/10/07 06:37:32;;;;;;;43.37;22.50;;;;;;;10.77;100.00;95767.63;5062757;28;20206;-76
2022/10/07 06:39:59;;;;;;;37.63;19.57;;;;;;;10.86;100.00;95778.69;5059835;28;20214;-76
2022/10/07 06:42:27;;;;;;;29.90;16.33;;;;;;;10.96;100.00;95779.16;5060719;28;21453;-75
2022/10/07 06:44:54;;;;;;;26.67;14.00;;;;;;;11.04;100.00;95779.81;5057926;28;20202;-76
2022/10/07 06:47:21;;;;;;;27.27;12.87;;;;;;;11.11;100.00;95779.84;5060210;28;20229;-75
2022/10/07 06:49:48;;;;;;;23.00;11.77;;;;;;;11.21;100.00;95790.69;5059487;28;20279;-75
2022/10/07 06:52:15;;;;;;;24.00;11.00;;;;;;;11.26;100.00;95790.91;5059462;28;20568;-76
2022/10/07 06:54:42;;;;;;;17.27;10.60;;;;;;;11.30;100.00;95790.34;5060386;28;20193;-76
2022/10/07 06:57:09;;;;;;;24.60;11.63;;;;;;;11.36;100.00;95786.16;5058250;28;20190;-76
2022/10/07 06:59:37;;;;;;;25.10;11.43;;;;;;;11.49;100.00;95780.16;5056883;28;20672;-73
2022/10/07 07:02:04;;;;;;;26.43;12.53;;;;;;;11.59;100.00;95786.63;5060365;28;20683;-73
2022/10/07 07:04:51;;;;;;;20.40;12.70;;;;;;;11.68;100.00;95795.06;5061223;28;20209;-74
2022/10/07 07:07:18;;;;;;;25.27;12.87;;;;;;;11.79;100.00;95791.91;5053739;28;20214;-74
2022/10/07 07:09:45;;;;;;;25.63;12.57;;;;;;;11.86;100.00;95782.34;5058263;28;20203;-73
2022/10/07 07:12:11;;;;;;;20.50;11.93;;;;;;;11.95;100.00;95788.94;5059567;28;20189;-74
2022/10/07 07:14:40;;;;;;;22.53;11.33;;;;;;;12.01;100.00;95789.94;5055286;28;20198;-75
2022/10/07 07:17:07;;;;;;;23.60;11.80;;;;;;;12.09;100.00;95793.16;5056999;28;20737;-76
2022/10/07 07:19:33;;;;;;;25.40;11.63;;;;;;;12.15;100.00;95781.16;5058973;28;20198;-76
2022/10/07 07:22:00;;;;;;;20.73;10.73;;;;;;;12.23;100.00;95788.78;5060628;28;20280;-76
2022/10/07 07:24:27;;;;;;;20.37;10.77;;;;;;;12.33;100.00;95779.56;5055085;28;20865;-75
2022/10/07 07:26:54;;;;;;;19.50;10.23;;;;;;;12.47;100.00;95778.53;5059042;28;20221;-75
2022/10/07 07:29:21;;;;;;;18.53;10.47;;;;;;;12.51;99.49;95776.34;5055195;28;20221;-76
2022/10/07 07:31:49;;;;;;;26.17;10.87;;;;;;;12.59;99.61;95773.53;5062680;28;20217;-75
2022/10/07 07:34:16;;;;;;;24.30;10.83;;;;;;;12.67;99.45;95778.53;5056520;28;20220;-75
2022/10/07 07:36:46;;;;;;;23.40;11.77;;;;;;;12.80;99.00;95781.13;5058724;28;20680;-75
2022/10/07 07:39:16;;;;;;;24.73;11.70;;;;;;;12.82;99.09;95773.88;5057426;28;20190;-76
2022/10/07 07:41:45;;;;;;;20.97;11.10;;;;;;;12.94;98.48;95771.44;5060571;28;20187;-74
2022/10/07 07:44:14;;;;;;;21.20;11.30;;;;;;;13.02;97.98;95772.03;5057534;28;20194;-74
2022/10/07 07:46:43;;;;;;;21.90;10.40;;;;;;;13.12;97.53;95774.25;5057076;28;20198;-71
2022/10/07 07:49:13;;;;;;;22.73;10.23;;;;;;;13.25;95.78;95779.41;5061244;28;20221;-71
2022/10/07 07:51:41;;;;;;;27.13;10.43;;;;;;;13.35;95.62;95782.41;5056330;28;20205;-71
2022/10/07 07:54:09;;;;;;;22.87;10.03;;;;;;;13.51;93.96;95773.28;5058305;28;20234;-70
2022/10/07 07:56:36;;;;;;;17.50;9.97;;;;;;;13.61;94.14;95776.28;5056593;28;20722;-70
2022/10/07 07:59:04;;;;;;;19.63;9.73;;;;;;;13.65;93.92;95774.81;5059212;28;20202;-71
2022/10/07 08:01:31;;;;;;;19.90;8.80;;;;;;;13.78;92.51;95779.19;5060698;28;20707;-72
2022/10/07 08:03:59;;;;;;;13.83;8.30;;;;;;;13.86;90.28;95769.28;5059346;28;20197;-71
2022/10/07 08:06:30;;;;;;;16.67;8.00;;;;;;;14.02;89.24;95770.59;5058987;28;20193;-71
2022/10/07 08:08:57;;;;;;;19.93;8.17;;;;;;;14.09;88.68;95768.72;5055604;28;20237;-71
2022/10/07 08:11:24;;;;;;;10.60;5.80;;;;;;;14.20;85.77;95758.38;5056463;28;20240;-70
2022/10/07 08:13:51;;;;;;;12.03;4.80;;;;;;;14.36;82.41;95761.53;5059851;28;20292;-71
2022/10/07 08:16:20;;;;;;;10.50;4.87;;;;;;;14.48;82.45;95762.44;5046844;28;20263;-70
2022/10/07 08:18:50;;;;;;;10.10;5.23;;;;;;;14.58;82.96;95754.88;5059078;28;20221;-70
2022/10/07 08:21:20;;;;;;;12.63;5.60;;;;;;;14.76;82.75;95763.59;5058314;28;20186;-70
2022/10/07 08:23:52;;;;;;;12.27;6.23;;;;;;;14.97;82.05;95762.38;5058330;28;20206;-71
2022/10/07 08:26:19;;;;;;;19.00;6.50;;;;;;;15.16;82.05;95747.44;5057726;28;20202;-70
2022/10/07 08:28:47;;;;;;;11.87;5.90;;;;;;;15.32;82.55;95744.25;5056720;28;20228;-73
2022/10/07 08:31:16;;;;;;;11.27;5.90;;;;;;;15.58;81.06;95753.63;5054570;28;20548;-73
2022/10/07 08:33:45;;;;;;;12.50;6.10;;;;;;;15.74;78.54;95743.31;5060734;28;20194;-72
2022/10/07 08:36:13;;;;;;;13.50;6.50;;;;;;;15.96;78.58;95743.59;5061072;28;20209;-72
2022/10/07 08:38:41;;;;;;;12.20;5.77;;;;;;;16.20;76.92;95734.78;5059401;28;20201;-73
2022/10/07 08:41:21;;;;;;;9.17;5.57;;;;;;;16.48;75.25;95741.97;5060429;28;20194;-72
2022/10/07 08:43:49;;;;;;;10.40;5.20;;;;;;;16.75;75.00;95739.75;5060734;28;20193;-72
2022/10/07 08:46:19;;;;;;;17.77;5.80;;;;;;;17.04;73.41;95744.06;5057726;28;20209;-76
2022/10/07 08:48:53;;;;;;;15.40;5.77;;;;;;;17.32;71.78;95746.72;5060420;28;20329;-76
2022/10/07 08:51:24;;;;;;;14.63;4.87;;;;;;;17.65;68.45;95745.28;5044842;28;20209;-76
2022/10/07 08:53:57;;;;;;;11.43;4.87;;;;;;;17.93;68.31;95743.44;5058491;28;20560;-76
2022/10/07 08:56:29;;;;;;;11.87;5.63;;;;;;;18.23;67.37;95745.81;5058780;28;20225;-76
2022/10/07 08:59:08;;;;;;;9.80;4.80;;;;;;;18.55;67.51;95738.19;5062741;28;20196;-75
2022/10/07 09:01:44;;;;;;;6.43;4.68;;;;;;;18.89;67.25;95731.03;5059165;28;20197;-76
2022/10/07 09:04:25;;;;;;;10.85;3.90;;;;;;;19.17;64.67;95726.41;5066516;28;20268;-76
2022/10/07 09:06:59;;;;;;;8.07;4.10;;;;;;;19.41;63.26;95731.47;5058972;28;20198;-75
2022/10/07 09:09:32;;;;;;;5.47;3.78;;;;;;;19.42;61.71;95723.31;5059688;28;20212;-76
2022/10/07 09:12:05;;;;;;;6.25;3.72;;;;;;;19.73;61.27;95722.59;5066328;28;20186;-76
2022/10/07 09:14:37;;;;;;;7.72;3.67;;;;;;;20.03;61.10;95723.94;5061893;28;20208;-76
2022/10/07 09:17:15;;;;;;;7.38;3.45;;;;;;;20.29;59.20;95712.56;5061663;28;20194;-71
2022/10/07 09:19:46;;;;;;;10.30;3.90;;;;;;;20.74;58.59;95717.38;5059895;28;20193;-78
2022/10/07 09:22:20;;;;;;;11.57;3.90;;;;;;;21.05;57.82;95710.41;5061997;28;20204;-78
2022/10/07 09:24:49;;;;;;;6.82;3.92;;;;;;;21.16;56.21;95710.22;5062861;28;20279;-69
2022/10/07 09:27:18;;;;;;;6.75;3.63;;;;;;;21.34;56.40;95715.06;5061187;28;20220;-71
2022/10/07 09:29:46;;;;;;;6.05;3.25;;;;;;;21.70;57.02;95718.63;5057761;28;20225;-74
2022/10/07 09:32:16;;;;;;;6.13;3.15;;;;;;;22.02;55.45;95721.09;5058853;28;20194;-74
2022/10/07 09:34:43;;;;;;;7.40;3.35;;;;;;;21.93;54.43;95720.03;5064126;28;20194;-74
2022/10/07 09:37:13;;;;;;;6.53;3.78;;;;;;;22.15;54.38;95704.69;5062073;28;20193;-74
2022/10/07 09:39:41;;;;;;;9.80;3.42;;;;;;;22.31;54.39;95716.88;5061290;28;20193;-74
2022/10/07 09:42:10;;;;;;;7.95;3.20;;;;;;;22.01;54.11;95714.22;5057584;28;20715;-74
2022/10/07 09:44:39;;;;;;;6.05;3.17;;;;;;;21.73;54.29;95714.69;5059570;28;20198;-73
2022/10/07 09:47:17;;;;;;;6.45;3.30;;;;;;;21.77;54.75;95710.44;5065949;28;20193;-73
2022/10/07 09:49:48;;;;;;;7.72;3.22;;;;;;;21.81;56.11;95704.38;5064170;28;20209;-74
2022/10/07 09:52:17;;;;;;;7.72;2.83;;;;;;;22.45;54.05;95706.56;5062313;28;20195;-73
2022/10/07 09:54:46;;;;;;;5.75;3.10;;;;;;;22.77;53.67;95698.34;5064564;28;20202;-74
2022/10/07 09:57:29;;;;;;;7.78;2.95;;;;;;;23.18;52.37;95702.44;5061541;28;20193;-74
2022/10/07 10:00:22;;;;;;;5.95;3.50;;;;;;;22.93;51.42;95707.84;5064848;28;20182;-74
2022/10/07 10:02:53;;;;;;;6.18;3.08;;;;;;;22.82;51.02;95696.47;5066909;28;20238;-74
2022/10/07 10:05:27;;;;;;;8.18;3.15;;;;;;;23.52;50.64;95682.16;5062585;28;20259;-73
2022/10/07 10:07:57;;;;;;;9.55;3.33;;;;;;;24.04;49.29;95691.44;5064194;28;20186;-74
2022/10/07 10:10:27;;;;;;;7.90;3.10;;;;;;;24.12;47.32;95678.38;5064598;28;20577;-74
2022/10/07 10:12:56;;;;;;;9.05;2.72;;;;;;;24.40;47.94;95690.09;5063445;28;20316;-74
2022/10/07 10:15:37;;;;;;;3.42;2.78;;;;;;;24.77;45.98;95682.31;5063949;28;20272;-74
2022/10/07 10:18:26;;;;;;;8.13;3.20;;;;;;;25.37;44.77;95686.16;5065413;28;20194;-75
2022/10/07 10:20:53;;;;;;;3.78;2.80;;;;;;;25.76;42.47;95685.97;5068133;28;20194;-74
2022/10/07 10:23:27;;;;;;;6.53;2.95;;;;;;;26.03;41.31;95688.00;5065093;28;20208;-74
2022/10/07 10:28:59;;;;;;;8.57;3.20;;;;;;;26.21;40.30;95679.19;5065572;28;20228;-75
2022/10/07 10:31:36;;;;;;;7.70;3.40;;;;;;;26.65;39.91;95677.94;5069475;28;20208;-74
2022/10/07 10:34:11;;;;;;;7.95;2.85;;;;;;;26.31;39.76;95673.69;5062624;28;20236;-76
2022/10/07 10:36:42;;;;;;;4.78;3.00;;;;;;;26.73;38.63;95675.38;5062113;28;20189;-74
2022/10/07 10:39:20;;;;;;;5.18;2.95;;;;;;;26.48;38.21;95663.28;5063833;28;20189;-74
2022/10/07 10:41:52;;;;;;;5.88;2.55;;;;;;;26.43;36.97;95670.56;5067098;28;20197;-77
2022/10/07 10:44:34;;;;;;;7.40;2.50;;;;;;;26.69;37.53;95653.06;5062685;28;20271;-77
2022/10/07 10:47:13;;;;;;;6.68;3.00;;;;;;;26.77;35.70;95652.34;5060440;28;20656;-78
2022/10/07 10:49:51;;;;;;;6.50;2.80;;;;;;;27.01;35.50;95658.31;5060325;28;20221;-78
2022/10/07 10:52:31;;;;;;;3.70;2.55;;;;;;;26.70;35.83;95656.47;5065749;28;20194;-77
2022/10/07 10:55:33;;;;;;;7.80;2.90;;;;;;;27.20;34.21;95647.53;5064110;28;20292;-79
2022/10/07 10:58:12;;;;;;;3.42;2.95;;;;;;;27.07;34.08;95652.91;5062566;28;20197;-79
2022/10/07 11:00:49;;;;;;;7.20;2.75;;;;;;;27.03;34.64;95645.47;5061489;28;20202;-78
2022/10/07 11:03:33;;;;;;;6.55;2.80;;;;;;;27.28;33.63;95638.81;5064077;28;20200;-79
2022/10/07 11:06:03;;;;;;;7.85;2.38;;;;;;;27.36;33.16;95640.03;5066301;28;20745;-79
2022/10/07 11:08:33;;;;;;;6.68;2.60;;;;;;;27.63;32.89;95633.84;5064725;28;20206;-80
2022/10/07 11:11:05;;;;;;;6.35;2.50;;;;;;;27.69;32.74;95627.28;5060244;28;20186;-79
2022/10/07 11:13:39;;;;;;;6.55;2.67;;;;;;;28.02;32.46;95629.44;5061774;28;20224;-78
2022/10/07 11:16:16;;;;;;;6.40;2.20;;;;;;;28.04;31.34;95619.28;5067248;28;20242;-78
2022/10/07 11:18:50;;;;;;;2.88;2.30;;;;;;;27.99;32.72;95616.72;5066395;28;20379;-78
2022/10/07 11:21:23;;;;;;;3.22;2.40;;;;;;;27.99;31.25;95623.94;5063292;28;20217;-78
2022/10/07 11:24:00;;;;;;;2.45;2.03;;;;;;;27.63;31.75;95613.25;5060851;28;20219;-78
2022/10/07 11:26:33;;;;;;;8.00;2.40;;;;;;;28.02;30.35;95616.06;5061530;28;20644;-78
2022/10/07 11:29:09;;;;;;;3.22;1.98;;;;;;;28.42;30.86;95618.88;5063845;28;20221;-78
2022/10/07 11:31:38;;;;;;;4.38;2.72;;;;;;;28.71;30.95;95616.53;5069204;28;20560;-78
2022/10/07 11:34:18;;;;;;;3.55;2.20;;;;;;;28.92;30.32;95616.78;5071659;28;20197;-78
2022/10/07 11:36:55;;;;;;;4.72;2.25;;;;;;;29.18;29.43;95614.94;5065144;28;20204;-78
2022/10/07 11:39:23;;;;;;;5.03;2.20;;;;;;;29.60;29.53;95613.47;5060126;28;20189;-76
2022/10/07 11:41:59;;;;;;;6.97;2.63;;;;;;;30.00;29.50;95609.56;5061090;28;20206;-78